createdAt,value
2018-11-26T00:02:02.707Z,5.50
2018-11-26T00:04:31.982Z,5.50
2018-11-26T00:07:01.638Z,5.50
2018-11-26T00:09:30.731Z,5.50
2018-11-26T00:12:00.053Z,5.40
2018-11-26T00:14:29.167Z,5.40
2018-11-26T00:16:59.201Z,5.30
2018-11-26T00:19:28.273Z,5.40
2018-11-26T00:21:57.339Z,5.40
2018-11-26T00:24:26.413Z,5.50
2018-11-26T00:26:55.497Z,5.50
2018-11-26T00:29:24.666Z,5.40
2018-11-26T00:31:53.800Z,5.40
2018-11-26T00:34:22.899Z,5.40
2018-11-26T00:36:51.999Z,5.30
2018-11-26T00:39:21.074Z,5.00
2018-11-26T00:41:50.920Z,5.10
2018-11-26T00:44:20.033Z,5.00
2018-11-26T00:46:49.165Z,5.00
2018-11-26T00:49:18.350Z,5.00
2018-11-26T00:51:47.463Z,4.90
2018-11-26T00:54:16.581Z,4.80
2018-11-26T00:56:46.897Z,5.00
2018-11-26T00:59:16.010Z,5.10
2018-11-26T01:01:45.330Z,5.10
2018-11-26T01:04:14.487Z,5.00
2018-11-26T01:06:43.738Z,5.00
2018-11-26T01:09:12.898Z,4.90
2018-11-26T01:11:42.034Z,4.90
2018-11-26T01:14:11.826Z,4.70
2018-11-26T01:16:40.923Z,4.70
2018-11-26T01:19:10.024Z,4.70
2018-11-26T01:21:39.893Z,4.80
2018-11-26T01:24:09.202Z,4.90
2018-11-26T01:26:39.445Z,4.90
2018-11-26T01:29:08.553Z,4.90
2018-11-26T01:31:38.428Z,5.00
2018-11-26T01:34:07.729Z,5.00
2018-11-26T01:36:36.922Z,4.90
2018-11-26T01:39:08.431Z,4.90
2018-11-26T01:41:37.666Z,4.70
2018-11-26T01:44:07.069Z,4.70
2018-11-26T01:46:36.759Z,4.80
2018-11-26T01:49:06.240Z,4.80
2018-11-26T01:51:35.357Z,4.80
2018-11-26T01:54:04.497Z,4.80
2018-11-26T01:56:33.569Z,4.70
2018-11-26T01:59:02.669Z,4.80
2018-11-26T02:01:31.990Z,4.90
2018-11-26T02:04:01.598Z,4.80
2018-11-26T02:06:32.347Z,4.90
2018-11-26T02:09:01.507Z,4.80
2018-11-26T02:11:31.300Z,4.90
2018-11-26T02:14:00.385Z,4.90
2018-11-26T02:16:29.572Z,4.90
2018-11-26T02:18:58.769Z,4.80
2018-11-26T02:21:28.041Z,4.80
2018-11-26T02:23:57.306Z,4.90
2018-11-26T02:26:26.398Z,4.90
2018-11-26T02:28:55.509Z,4.90
2018-11-26T02:31:24.592Z,4.90
2018-11-26T02:33:54.531Z,4.90
2018-11-26T02:36:24.315Z,5.00
2018-11-26T02:38:53.574Z,4.90
2018-11-26T02:41:22.782Z,5.10
2018-11-26T02:43:51.988Z,5.20
2018-11-26T02:46:21.906Z,5.10
2018-11-26T02:48:51.039Z,5.00
2018-11-26T02:51:20.338Z,5.00
2018-11-26T02:53:49.493Z,5.00
2018-11-26T02:56:18.821Z,5.00
2018-11-26T02:58:47.893Z,5.00
2018-11-26T03:01:17.025Z,5.10
2018-11-26T03:03:46.191Z,5.10
2018-11-26T03:06:15.344Z,5.10
2018-11-26T03:08:44.501Z,4.90
2018-11-26T03:11:14.422Z,5.10
2018-11-26T03:13:44.330Z,5.20
2018-11-26T03:16:13.627Z,5.30
2018-11-26T03:18:42.756Z,5.30
2018-11-26T03:21:11.939Z,5.30
2018-11-26T03:23:41.754Z,5.30
2018-11-26T03:26:10.859Z,5.30
2018-11-26T03:28:39.931Z,5.40
2018-11-26T03:31:09.125Z,5.40
2018-11-26T03:33:38.216Z,5.50
2018-11-26T03:36:07.843Z,5.40
2018-11-26T03:38:51.016Z,5.50
2018-11-26T03:41:20.575Z,5.60
2018-11-26T03:43:49.685Z,5.60
2018-11-26T03:46:18.881Z,5.60
2018-11-26T03:48:47.983Z,5.50
2018-11-26T03:51:17.259Z,5.50
2018-11-26T03:53:46.355Z,5.50
2018-11-26T03:56:15.462Z,5.50
2018-11-26T03:58:44.571Z,5.50
2018-11-26T04:01:13.678Z,5.20
2018-11-26T04:03:43.584Z,5.30
2018-11-26T04:06:12.802Z,5.30
2018-11-26T04:08:43.782Z,5.30
2018-11-26T04:11:12.875Z,5.30
2018-11-26T04:13:41.993Z,5.30
2018-11-26T04:16:11.090Z,5.20
2018-11-26T04:18:40.166Z,5.10
2018-11-26T04:21:09.832Z,5.20
2018-11-26T04:23:39.049Z,5.20
2018-11-26T04:26:08.155Z,4.80
2018-11-26T04:28:37.458Z,5.00
2018-11-26T04:31:06.617Z,5.00
2018-11-26T04:33:35.799Z,5.10
2018-11-26T04:36:05.495Z,4.90
2018-11-26T04:38:34.650Z,4.90
2018-11-26T04:41:03.771Z,4.90
2018-11-26T04:43:33.091Z,5.00
2018-11-26T04:46:02.230Z,4.90
2018-11-26T04:48:31.344Z,4.90
2018-11-26T04:51:00.458Z,4.90
2018-11-26T04:53:29.550Z,4.90
2018-11-26T04:55:58.600Z,5.10
2018-11-26T04:58:27.709Z,5.20
2018-11-26T05:00:56.966Z,5.30
2018-11-26T05:03:26.231Z,5.30
2018-11-26T05:05:55.328Z,5.20
2018-11-26T05:08:24.473Z,5.20
2018-11-26T05:10:53.612Z,5.20
2018-11-26T05:13:22.703Z,5.30
2018-11-26T05:15:52.663Z,5.30
2018-11-26T05:18:21.862Z,5.20
2018-11-26T05:20:51.088Z,5.20
2018-11-26T05:23:20.266Z,5.20
2018-11-26T05:25:49.366Z,5.10
2018-11-26T05:28:18.510Z,4.90
2018-11-26T05:30:47.633Z,4.90
2018-11-26T05:33:17.595Z,4.80
2018-11-26T05:35:47.301Z,4.80
2018-11-26T05:38:16.383Z,4.80
2018-11-26T05:40:45.662Z,4.80
2018-11-26T05:43:14.878Z,4.90
2018-11-26T05:45:44.126Z,4.90
2018-11-26T05:48:13.274Z,4.90
2018-11-26T05:50:43.059Z,4.90
2018-11-26T05:53:12.134Z,4.90
2018-11-26T05:55:41.262Z,4.90
2018-11-26T05:58:10.473Z,4.90
2018-11-26T06:00:40.133Z,4.90
2018-11-26T06:03:09.228Z,4.90
2018-11-26T06:05:38.293Z,4.90
2018-11-26T06:08:07.584Z,4.90
2018-11-26T06:10:36.661Z,4.90
2018-11-26T06:13:06.905Z,4.90
2018-11-26T06:15:36.307Z,4.80
2018-11-26T06:18:05.715Z,4.90
2018-11-26T06:20:34.812Z,4.90
2018-11-26T06:23:04.082Z,4.80
2018-11-26T06:25:33.188Z,4.90
2018-11-26T06:28:02.289Z,4.90
2018-11-26T06:30:31.614Z,4.90
2018-11-26T06:33:01.337Z,4.90
2018-11-26T06:35:30.426Z,4.90
2018-11-26T06:37:59.769Z,4.90
2018-11-26T06:40:28.914Z,4.90
2018-11-26T06:42:58.010Z,4.90
2018-11-26T06:45:27.326Z,4.90
2018-11-26T06:47:56.481Z,5.00
2018-11-26T06:50:25.761Z,4.90
2018-11-26T06:52:55.609Z,4.90
2018-11-26T06:55:24.853Z,5.00
2018-11-26T06:57:53.999Z,4.90
2018-11-26T07:00:23.105Z,4.90
2018-11-26T07:02:52.243Z,4.90
2018-11-26T07:05:22.295Z,5.00
2018-11-26T07:07:51.392Z,5.00
2018-11-26T07:10:21.176Z,5.00
2018-11-26T07:12:50.287Z,5.00
2018-11-26T07:15:21.023Z,5.10
2018-11-26T07:17:50.518Z,5.10
2018-11-26T07:20:20.850Z,5.10
2018-11-26T07:22:50.284Z,5.20
2018-11-26T07:25:20.759Z,5.20
2018-11-26T07:27:53.258Z,5.20
2018-11-26T07:30:23.615Z,5.10
2018-11-26T07:32:53.662Z,5.00
2018-11-26T07:35:22.962Z,5.20
2018-11-26T07:37:52.805Z,5.20
2018-11-26T07:40:23.027Z,5.30
2018-11-26T07:42:59.953Z,5.30
2018-11-26T07:45:29.718Z,5.30
2018-11-26T07:47:58.816Z,5.30
2018-11-26T07:50:27.862Z,5.30
2018-11-26T07:52:57.035Z,5.40
2018-11-26T07:55:26.135Z,5.40
2018-11-26T07:57:55.414Z,5.20
2018-11-26T08:00:24.651Z,5.30
2018-11-26T08:02:53.779Z,5.30
2018-11-26T08:05:23.692Z,5.30
2018-11-26T08:07:52.924Z,5.20
2018-11-26T08:10:24.303Z,5.10
2018-11-26T08:12:54.534Z,5.20
2018-11-26T08:15:24.960Z,5.30
2018-11-26T08:17:55.478Z,5.40
2018-11-26T08:20:24.754Z,5.40
2018-11-26T08:22:54.914Z,5.50
2018-11-26T08:25:24.526Z,5.50
2018-11-26T08:27:53.781Z,5.40
2018-11-26T08:30:24.451Z,5.40
2018-11-26T08:32:58.875Z,5.50
2018-11-26T08:35:29.229Z,5.50
2018-11-26T09:55:44.104Z,5.60
2018-11-26T09:58:13.231Z,5.50
2018-11-26T10:00:42.357Z,5.70
2018-11-26T10:03:11.664Z,5.80
2018-11-26T10:05:40.837Z,6.00
2018-11-26T10:08:10.086Z,5.80
2018-11-26T10:10:39.337Z,5.90
2018-11-26T10:13:08.576Z,5.90
2018-11-26T10:15:37.815Z,6.00
2018-11-26T10:18:06.946Z,6.00
2018-11-26T10:20:36.444Z,6.00
2018-11-26T10:23:06.483Z,6.00
2018-11-26T10:25:35.670Z,6.00
2018-11-26T10:28:05.098Z,6.10
2018-11-26T10:30:34.662Z,6.20
2018-11-26T10:33:03.839Z,6.20
2018-11-26T10:35:33.107Z,6.20
2018-11-26T10:38:02.366Z,6.30
2018-11-26T10:40:31.541Z,6.10
2018-11-26T10:43:00.711Z,6.10
2018-11-26T10:45:30.081Z,6.20
2018-11-26T10:47:59.237Z,6.20
2018-11-26T10:50:29.099Z,6.10
2018-11-26T10:52:59.470Z,5.90
2018-11-26T10:55:33.988Z,5.90
2018-11-26T10:58:03.270Z,5.90
2018-11-26T11:00:39.486Z,5.80
2018-11-26T11:03:08.631Z,5.90
2018-11-26T11:05:40.764Z,5.70
2018-11-26T11:08:10.055Z,5.60
2018-11-26T11:10:39.450Z,5.70
2018-11-26T11:13:10.669Z,5.60
2018-11-26T11:15:39.964Z,5.50
2018-11-26T11:18:09.556Z,5.60
2018-11-26T11:20:38.890Z,5.50
2018-11-26T11:23:08.885Z,5.50
2018-11-26T11:25:38.982Z,5.60
2018-11-26T11:28:08.190Z,5.60
2018-11-26T11:30:37.406Z,5.50
2018-11-26T11:35:35.653Z,5.50
2018-11-26T11:38:05.471Z,5.50
2018-11-26T11:40:34.676Z,5.50
2018-11-26T11:43:03.959Z,5.50
2018-11-26T11:45:34.100Z,5.40
2018-11-26T11:48:03.547Z,5.50
2018-11-26T11:50:32.718Z,5.20
2018-11-26T11:53:01.893Z,5.30
2018-11-26T11:55:31.092Z,5.30
2018-11-26T11:58:00.202Z,5.20
2018-11-26T12:00:32.937Z,5.30
2018-11-26T12:03:03.446Z,5.40
2018-11-26T12:05:32.840Z,5.50
2018-11-26T12:08:02.279Z,5.50
2018-11-26T12:10:31.615Z,5.40
2018-11-26T12:13:00.790Z,5.40
2018-11-26T12:15:30.057Z,5.30
2018-11-26T12:17:59.191Z,5.30
2018-11-26T12:20:28.730Z,5.30
2018-11-26T12:22:57.868Z,5.30
2018-11-26T12:25:28.277Z,5.20
2018-11-26T12:27:57.424Z,5.30
2018-11-26T12:30:28.108Z,5.30
2018-11-26T12:32:57.628Z,5.60
2018-11-26T12:35:26.829Z,5.70
2018-11-26T12:37:56.092Z,5.80
2018-11-26T12:40:26.552Z,5.80
2018-11-26T12:42:56.783Z,5.70
2018-11-26T12:45:27.559Z,5.70
2018-11-26T12:47:57.086Z,5.90
2018-11-26T12:50:26.905Z,6.00
2018-11-26T12:52:55.934Z,5.90
2018-11-26T12:55:25.829Z,5.90
2018-11-26T12:57:55.891Z,6.10
2018-11-26T13:00:26.232Z,6.00
2018-11-26T13:02:57.660Z,6.10
2018-11-26T13:05:27.517Z,6.10
2018-11-26T13:07:56.855Z,6.10
2018-11-26T13:10:27.304Z,6.10
2018-11-26T13:12:56.473Z,6.00
2018-11-26T13:15:29.166Z,6.10
2018-11-26T13:18:00.955Z,6.10
2018-11-26T13:20:32.294Z,6.20
2018-11-26T13:23:03.043Z,6.10
2018-11-26T13:25:34.208Z,6.00
2018-11-26T13:28:04.418Z,5.90
2018-11-26T13:30:36.176Z,5.80
2018-11-26T13:33:11.813Z,5.90
2018-11-26T13:35:40.633Z,5.80
2018-11-26T13:38:10.193Z,5.90
2018-11-26T13:40:39.366Z,5.90
2018-11-26T13:43:10.396Z,6.00
2018-11-26T13:45:42.047Z,6.00
2018-11-26T13:48:12.568Z,5.90
2018-11-26T13:50:57.940Z,5.80
2018-11-26T13:53:27.167Z,5.90
2018-11-26T13:55:56.599Z,5.80
2018-11-26T13:58:25.911Z,5.80
2018-11-26T14:00:55.925Z,5.70
2018-11-26T14:03:25.103Z,5.70
2018-11-26T14:05:54.331Z,5.70
2018-11-26T14:08:23.577Z,5.50
2018-11-26T14:10:52.949Z,5.70
2018-11-26T14:13:22.076Z,5.70
2018-11-26T14:15:51.408Z,5.60
2018-11-26T14:18:20.450Z,5.60
2018-11-26T14:20:49.650Z,5.50
2018-11-26T14:23:21.005Z,5.50
2018-11-26T14:25:50.178Z,5.20
2018-11-26T14:28:19.477Z,5.20
2018-11-26T14:30:48.720Z,5.40
2018-11-26T14:33:17.976Z,5.40
2018-11-26T14:35:47.201Z,5.40
2018-11-26T14:38:16.492Z,5.40
2018-11-26T14:40:47.340Z,5.50
2018-11-26T14:43:16.538Z,5.50
2018-11-26T14:45:45.735Z,5.50
2018-11-26T14:48:14.984Z,5.30
2018-11-26T14:50:44.211Z,5.30
2018-11-26T14:53:16.524Z,5.10
2018-11-26T14:55:45.846Z,5.20
2018-11-26T14:58:15.046Z,5.20
2018-11-26T15:00:44.238Z,5.10
2018-11-26T15:03:13.392Z,5.00
2018-11-26T15:05:43.257Z,5.00
2018-11-26T15:08:12.608Z,5.00
2018-11-26T15:10:41.720Z,5.10
2018-11-26T15:13:11.656Z,4.90
2018-11-26T15:15:41.598Z,4.90
2018-11-26T15:18:10.765Z,4.80
2018-11-26T15:20:39.925Z,4.80
2018-11-26T15:23:09.128Z,4.80
2018-11-26T15:25:45.150Z,4.80
2018-11-26T15:28:14.827Z,4.70
2018-11-26T15:30:44.248Z,4.60
2018-11-26T15:33:14.068Z,4.50
2018-11-26T15:35:43.207Z,4.60
2018-11-26T15:38:13.039Z,4.50
2018-11-26T15:40:42.857Z,4.40
2018-11-26T15:43:12.107Z,4.40
2018-11-26T15:45:41.274Z,4.40
2018-11-26T15:48:11.832Z,4.40
2018-11-26T15:50:41.722Z,4.40
2018-11-26T15:53:11.118Z,4.30
2018-11-26T15:55:40.273Z,4.20
2018-11-26T15:58:10.461Z,4.20
2018-11-26T16:00:39.785Z,4.20
2018-11-26T16:03:09.076Z,4.10
2018-11-26T16:05:40.228Z,4.10
2018-11-26T16:08:10.645Z,4.10
2018-11-26T16:10:39.518Z,4.00
2018-11-26T16:13:09.563Z,4.10
2018-11-26T16:15:40.289Z,4.10
2018-11-26T16:18:11.447Z,4.00
2018-11-26T16:20:40.292Z,4.00
2018-11-26T16:23:10.061Z,4.10
2018-11-26T16:25:41.293Z,4.00
2018-11-26T16:28:11.429Z,4.00
2018-11-26T16:30:40.302Z,4.00
2018-11-26T16:33:09.830Z,4.00
2018-11-26T16:35:38.674Z,4.00
2018-11-26T16:38:08.546Z,4.10
2018-11-26T16:40:37.395Z,4.00
2018-11-26T16:43:06.646Z,3.90
2018-11-26T16:45:35.468Z,3.90
2018-11-26T16:48:04.330Z,3.80
2018-11-26T16:50:34.407Z,3.90
2018-11-26T16:53:03.262Z,4.00
2018-11-26T16:55:32.087Z,3.90
2018-11-26T16:58:00.916Z,3.90
2018-11-26T17:00:30.635Z,3.90
2018-11-26T17:03:00.585Z,3.70
2018-11-26T17:05:37.749Z,3.60
2018-11-26T17:08:10.767Z,3.70
2018-11-26T17:10:39.734Z,3.70
2018-11-26T17:13:10.002Z,3.70
2018-11-26T17:15:38.845Z,3.70
2018-11-26T17:18:07.979Z,3.80
2018-11-26T17:20:37.566Z,3.80
2018-11-26T17:23:06.985Z,3.90
2018-11-26T17:25:35.806Z,3.80
2018-11-26T17:28:04.662Z,3.80
2018-11-26T17:30:33.486Z,3.90
2018-11-26T17:33:03.582Z,3.80
2018-11-26T17:35:32.570Z,3.70
2018-11-26T17:38:01.399Z,3.70
2018-11-26T17:40:30.242Z,3.70
2018-11-26T17:42:59.098Z,3.60
2018-11-26T17:45:27.938Z,3.70
2018-11-26T17:47:58.794Z,3.70
2018-11-26T17:50:35.006Z,3.80
2018-11-26T17:53:04.158Z,3.70
2018-11-26T17:55:32.977Z,3.70
2018-11-26T17:58:01.823Z,3.60
2018-11-26T18:00:32.962Z,3.60
2018-11-26T18:03:02.041Z,3.60
2018-11-26T18:05:31.384Z,3.70
2018-11-26T18:08:04.285Z,3.70
2018-11-26T18:10:33.132Z,3.80
2018-11-26T18:13:02.021Z,3.80
2018-11-26T18:15:30.847Z,3.80
2018-11-26T18:17:59.718Z,3.80
2018-11-26T18:20:28.540Z,3.70
2018-11-26T18:22:57.396Z,3.70
2018-11-26T18:25:26.214Z,3.70
2018-11-26T18:28:11.111Z,3.80
2018-11-26T18:30:43.262Z,3.80
2018-11-26T18:33:12.122Z,3.70
2018-11-26T18:35:41.566Z,3.70
2018-11-26T18:38:10.398Z,3.80
2018-11-26T18:40:40.449Z,3.70
2018-11-26T18:43:09.594Z,3.80
2018-11-26T18:45:39.472Z,3.90
2018-11-26T18:48:09.418Z,3.90
2018-11-26T18:50:38.499Z,3.90
2018-11-26T18:53:08.076Z,3.90
2018-11-26T18:55:38.052Z,4.00
2018-11-26T18:58:07.139Z,3.90
2018-11-26T19:00:43.186Z,3.70
2018-11-26T19:03:12.071Z,3.90
2018-11-26T19:05:40.873Z,4.00
2018-11-26T19:08:09.698Z,4.00
2018-11-26T19:10:38.518Z,3.90
2018-11-26T19:14:13.894Z,3.90
2018-11-26T19:16:45.946Z,3.70
2018-11-26T19:19:14.784Z,3.80
2018-11-26T19:21:43.687Z,3.80
2018-11-26T19:24:12.575Z,3.70
2018-11-26T19:26:41.390Z,3.60
2018-11-26T19:29:10.225Z,3.70
2018-11-26T19:31:39.026Z,3.60
2018-11-26T19:34:07.875Z,3.60
2018-11-26T19:36:36.723Z,3.70
2018-11-26T19:39:08.360Z,3.60
2018-11-26T19:41:37.463Z,3.50
2018-11-26T19:44:06.390Z,3.60
2018-11-26T19:46:35.169Z,3.60
2018-11-26T19:49:04.011Z,3.60
2018-11-26T19:51:32.847Z,3.50
2018-11-26T19:54:01.663Z,3.50
2018-11-26T19:56:30.501Z,3.60
2018-11-26T19:59:01.266Z,3.60
2018-11-26T20:01:30.137Z,3.80
2018-11-26T20:04:14.926Z,3.90
2018-11-26T20:06:43.743Z,3.80
2018-11-26T20:09:12.577Z,3.90
2018-11-26T20:11:41.402Z,4.10
2018-11-26T20:14:10.488Z,4.10
2018-11-26T20:16:43.583Z,4.10
2018-11-26T20:19:12.895Z,4.10
2018-11-26T20:21:41.994Z,4.20
2018-11-26T20:24:11.816Z,4.20
2018-11-26T20:26:41.048Z,4.40
2018-11-26T20:29:10.616Z,4.40
2018-11-26T20:31:39.932Z,4.50
2018-11-26T20:34:09.090Z,4.60
2018-11-26T20:36:41.517Z,4.70
2018-11-26T20:39:10.663Z,4.60
2018-11-26T20:41:40.076Z,4.60
2018-11-26T20:44:09.556Z,4.60
2018-11-26T20:46:39.559Z,4.60
2018-11-26T20:49:10.376Z,4.60
2018-11-26T20:51:39.738Z,4.60
2018-11-26T20:54:09.866Z,4.50
2018-11-26T20:56:39.006Z,4.60
2018-11-26T20:59:08.596Z,4.60
2018-11-26T21:01:37.791Z,4.40
2018-11-26T21:04:08.620Z,4.40
2018-11-26T21:06:38.407Z,4.20
2018-11-26T21:09:08.924Z,4.20
2018-11-26T21:11:39.783Z,4.40
2018-11-26T21:14:09.643Z,4.50
2018-11-26T21:16:38.794Z,4.40
2018-11-26T21:19:08.106Z,4.40
2018-11-26T21:21:37.664Z,4.20
2018-11-26T21:24:07.308Z,4.30
2018-11-26T21:26:36.457Z,4.20
2018-11-26T21:29:06.519Z,4.00
2018-11-26T21:31:35.784Z,4.10
2018-11-26T21:34:05.357Z,4.10
2018-11-26T21:36:35.920Z,3.90
2018-11-26T21:39:08.475Z,3.90
2018-11-26T21:41:38.483Z,3.90
2018-11-26T21:44:09.175Z,3.90
2018-11-26T21:46:38.281Z,3.80
2018-11-26T21:49:07.402Z,3.90
2018-11-26T21:51:37.077Z,3.90
2018-11-26T21:54:06.596Z,3.90
2018-11-26T21:56:36.286Z,4.00
2018-11-26T21:59:05.760Z,4.10
2018-11-26T22:01:35.003Z,4.30
2018-11-26T22:04:04.130Z,4.30
2018-11-26T22:06:33.914Z,4.30
2018-11-26T22:09:03.947Z,4.40
2018-11-26T22:11:33.082Z,4.50
2018-11-26T22:14:02.225Z,4.60
2018-11-26T22:16:31.443Z,4.70
2018-11-26T22:19:00.694Z,4.70
2018-11-26T22:21:29.942Z,4.70
2018-11-26T22:23:59.526Z,4.70
2018-11-26T22:26:30.520Z,4.80
2018-11-26T22:28:59.611Z,4.70
2018-11-26T22:33:57.598Z,4.80
2018-11-26T22:36:26.824Z,4.80
2018-11-26T22:38:56.156Z,4.80
2018-11-26T22:41:25.241Z,4.80
2018-11-26T22:43:54.849Z,4.90
2018-11-26T22:46:24.029Z,4.80
2018-11-26T22:48:54.106Z,4.80
2018-11-26T22:51:23.230Z,4.80
2018-11-26T22:53:53.036Z,4.80
2018-11-26T22:56:23.380Z,4.80
2018-11-26T22:58:52.411Z,4.70
2018-11-26T23:01:21.559Z,4.70
2018-11-26T23:03:50.645Z,4.70
2018-11-26T23:06:19.827Z,4.70
2018-11-26T23:08:48.918Z,4.70
2018-11-26T23:11:18.307Z,4.60
2018-11-26T23:13:47.410Z,4.60
2018-11-26T23:16:17.185Z,4.60
2018-11-26T23:18:46.325Z,4.60
2018-11-26T23:21:15.717Z,4.60
2018-11-26T23:23:45.084Z,4.70
2018-11-26T23:26:14.221Z,4.70
2018-11-26T23:28:43.324Z,4.70
2018-11-26T23:31:12.618Z,4.70
2018-11-26T23:33:41.993Z,4.70
2018-11-26T23:36:11.113Z,4.70
2018-11-26T23:38:40.252Z,4.80
2018-11-26T23:41:09.387Z,4.80
2018-11-26T23:43:38.634Z,4.80
2018-11-26T23:46:07.831Z,4.80
2018-11-26T23:48:37.079Z,4.70
2018-11-26T23:51:07.504Z,4.80
2018-11-26T23:53:38.067Z,4.80
2018-11-26T23:56:09.578Z,4.80
2018-11-26T23:58:38.863Z,4.80
